createdAt,value
2019-06-10T00:02:16.090Z,3.50
2019-06-10T00:04:45.056Z,3.50
2019-06-10T00:07:14.075Z,3.53
2019-06-10T00:09:43.090Z,3.73
2019-06-10T00:12:12.763Z,4.00
2019-06-10T00:14:42.041Z,3.70
2019-06-10T00:17:14.065Z,4.00
2019-06-10T00:19:43.073Z,4.00
2019-06-10T00:22:12.162Z,3.93
2019-06-10T00:24:44.404Z,3.80
2019-06-10T00:27:13.347Z,4.00
2019-06-10T00:29:42.292Z,3.77
2019-06-10T00:32:13.031Z,3.90
2019-06-10T00:34:45.085Z,3.53
2019-06-10T00:37:14.904Z,4.10
2019-06-10T00:39:44.177Z,3.70
2019-06-10T00:42:15.091Z,3.80
2019-06-10T00:44:46.136Z,4.33
2019-06-10T00:47:15.505Z,3.97
2019-06-10T00:49:47.612Z,4.13
2019-06-10T00:52:16.614Z,3.97
2019-06-10T00:54:45.483Z,4.17
2019-06-10T00:57:14.393Z,4.43
2019-06-10T00:59:43.323Z,4.47
2019-06-10T01:02:21.207Z,3.97
2019-06-10T01:04:52.468Z,4.50
2019-06-10T01:07:21.882Z,4.37
2019-06-10T01:09:51.741Z,4.53
2019-06-10T01:12:23.784Z,4.40
2019-06-10T01:14:52.730Z,4.37
2019-06-10T01:17:21.751Z,4.80
2019-06-10T01:19:50.948Z,4.57
2019-06-10T01:22:23.072Z,4.27
2019-06-10T01:24:52.039Z,5.20
2019-06-10T01:27:24.533Z,5.10
2019-06-10T01:29:53.371Z,4.50
2019-06-10T01:32:22.205Z,4.83
2019-06-10T01:34:54.201Z,5.33
2019-06-10T01:37:23.092Z,5.23
2019-06-10T01:39:52.129Z,5.23
2019-06-10T01:42:23.493Z,4.80
2019-06-10T01:44:56.038Z,4.60
2019-06-10T01:47:24.967Z,5.13
2019-06-10T01:49:54.018Z,5.50
2019-06-10T01:52:22.990Z,4.50
2019-06-10T01:54:51.910Z,5.13
2019-06-10T01:57:21.966Z,5.17
2019-06-10T01:59:51.053Z,4.77
2019-06-10T02:02:23.966Z,5.73
2019-06-10T02:04:53.235Z,5.37
2019-06-10T02:07:23.215Z,5.00
2019-06-10T02:09:52.188Z,5.10
2019-06-10T02:12:24.127Z,5.37
2019-06-10T02:14:54.732Z,5.00
2019-06-10T02:17:24.144Z,5.63
2019-06-10T02:19:53.340Z,5.50
2019-06-10T02:22:24.338Z,5.57
2019-06-10T02:24:55.468Z,5.40
2019-06-10T02:27:24.500Z,5.87
2019-06-10T02:29:53.369Z,5.67
2019-06-10T02:32:31.328Z,5.70
2019-06-10T02:35:03.510Z,5.60
2019-06-10T02:37:31.762Z,5.53
2019-06-10T02:39:58.118Z,5.83
2019-06-10T02:42:35.524Z,6.23
2019-06-10T02:45:03.624Z,6.10
2019-06-10T02:47:37.560Z,6.07
2019-06-10T02:50:08.814Z,6.03
2019-06-10T02:52:38.703Z,6.00
2019-06-10T02:55:08.086Z,6.40
2019-06-10T02:57:44.908Z,6.57
2019-06-10T03:00:20.690Z,6.07
2019-06-10T03:02:45.087Z,6.10
2019-06-10T03:05:14.537Z,5.67
2019-06-10T03:07:44.822Z,6.53
2019-06-10T03:10:13.970Z,6.70
2019-06-10T03:12:43.003Z,6.43
2019-06-10T03:15:26.459Z,7.23
2019-06-10T03:17:54.941Z,6.93
2019-06-10T03:20:25.859Z,7.13
2019-06-10T03:22:54.378Z,7.17
2019-06-10T03:25:24.830Z,6.93
2019-06-10T03:27:57.348Z,7.30
2019-06-10T03:30:46.444Z,7.10
2019-06-10T03:32:59.195Z,7.70
2019-06-10T03:35:28.512Z,7.50
2019-06-10T03:37:59.809Z,8.00
2019-06-10T03:40:28.769Z,8.77
2019-06-10T03:42:57.609Z,9.67
2019-06-10T03:45:27.171Z,8.40
2019-06-10T03:47:57.654Z,9.00
2019-06-10T03:50:27.467Z,8.63
2019-06-10T03:53:00.936Z,7.87
2019-06-10T03:55:33.110Z,8.70
2019-06-10T03:58:02.332Z,9.37
2019-06-10T04:00:36.898Z,9.10
2019-06-10T04:03:05.036Z,9.33
2019-06-10T04:05:33.915Z,10.13
2019-06-10T04:08:02.832Z,9.60
2019-06-10T04:10:32.487Z,9.37
2019-06-10T04:13:03.837Z,9.57
2019-06-10T04:15:32.827Z,10.50
2019-06-10T04:18:03.960Z,9.53
2019-06-10T04:20:33.173Z,10.23
2019-06-10T04:23:02.758Z,9.77
2019-06-10T04:25:32.461Z,10.87
2019-06-10T04:28:03.151Z,11.17
2019-06-10T04:30:32.570Z,10.70
2019-06-10T04:33:02.318Z,10.30
2019-06-10T04:35:33.700Z,11.23
2019-06-10T04:38:03.911Z,11.97
2019-06-10T04:40:35.516Z,11.17
2019-06-10T04:43:04.373Z,10.77
2019-06-10T04:45:33.476Z,12.33
2019-06-10T04:48:04.433Z,12.00
2019-06-10T04:50:42.160Z,11.73
2019-06-10T04:53:04.075Z,12.10
2019-06-10T04:55:32.905Z,11.53
2019-06-10T04:58:02.540Z,13.30
2019-06-10T05:00:33.092Z,12.17
2019-06-10T05:03:03.599Z,13.90
2019-06-10T05:05:32.966Z,13.37
2019-06-10T05:08:02.637Z,13.23
2019-06-10T05:10:33.224Z,13.73
2019-06-10T05:13:03.122Z,13.60
2019-06-10T05:15:34.973Z,13.07
2019-06-10T05:18:06.424Z,13.47
2019-06-10T05:20:51.163Z,13.57
2019-06-10T05:23:08.829Z,13.63
2019-06-10T05:25:43.066Z,13.63
2019-06-10T05:28:16.991Z,13.57
2019-06-10T05:30:46.275Z,14.03
2019-06-10T05:33:15.460Z,13.23
2019-06-10T05:35:52.827Z,13.73
2019-06-10T05:38:19.021Z,14.20
2019-06-10T05:40:51.981Z,14.80
2019-06-10T05:43:24.924Z,14.90
2019-06-10T05:45:54.111Z,13.70
2019-06-10T05:48:25.005Z,13.47
2019-06-10T05:51:02.688Z,13.63
2019-06-10T05:53:26.519Z,13.97
2019-06-10T05:55:55.908Z,15.73
2019-06-10T05:58:26.148Z,14.17
2019-06-10T06:00:55.522Z,14.80
2019-06-10T06:03:25.690Z,13.83
2019-06-10T06:05:54.771Z,13.47
2019-06-10T06:08:24.905Z,13.60
2019-06-10T06:10:54.044Z,14.80
2019-06-10T06:13:23.258Z,13.83
2019-06-10T06:15:52.916Z,14.60
2019-06-10T06:18:22.580Z,14.03
2019-06-10T06:20:52.619Z,14.27
2019-06-10T06:23:23.133Z,14.47
2019-06-10T06:25:53.141Z,13.93
2019-06-10T06:28:22.943Z,13.93
2019-06-10T06:30:55.371Z,14.93
2019-06-10T06:33:24.292Z,15.27
2019-06-10T06:35:53.169Z,14.30
2019-06-10T06:38:22.473Z,14.10
2019-06-10T06:40:53.685Z,14.97
2019-06-10T06:43:22.377Z,14.57
2019-06-10T06:45:53.136Z,14.83
2019-06-10T06:48:22.702Z,14.80
2019-06-10T06:51:04.499Z,15.13
2019-06-10T06:53:35.306Z,14.90
2019-06-10T06:55:59.637Z,14.67
2019-06-10T06:58:29.126Z,14.20
2019-06-10T07:01:05.967Z,13.97
2019-06-10T07:03:29.717Z,14.77
2019-06-10T07:05:59.000Z,14.57
2019-06-10T07:08:32.833Z,14.57
2019-06-10T07:11:05.730Z,14.43
2019-06-10T07:13:37.068Z,14.30
2019-06-10T07:16:05.281Z,14.47
2019-06-10T07:18:40.864Z,14.23
2019-06-10T07:21:07.979Z,14.27
2019-06-10T07:23:40.280Z,14.50
2019-06-10T07:26:07.792Z,13.00
2019-06-10T07:28:38.667Z,14.13
2019-06-10T07:31:20.962Z,13.73
2019-06-10T07:33:43.025Z,14.07
2019-06-10T07:36:13.138Z,14.33
2019-06-10T07:38:46.441Z,13.87
2019-06-10T07:41:12.691Z,14.10
2019-06-10T07:43:47.521Z,13.67
2019-06-10T07:46:15.597Z,13.67
2019-06-10T07:48:47.845Z,13.43
2019-06-10T07:51:15.164Z,14.33
2019-06-10T07:53:47.166Z,14.00
2019-06-10T07:56:16.148Z,13.23
2019-06-10T07:58:47.846Z,14.10
2019-06-10T08:01:23.010Z,13.50
2019-06-10T08:03:54.078Z,13.40
2019-06-10T08:06:23.238Z,13.67
2019-06-10T08:08:53.260Z,13.10
2019-06-10T08:11:23.040Z,13.90
2019-06-10T08:13:53.905Z,13.13
2019-06-10T08:16:23.649Z,12.73
2019-06-10T08:19:21.854Z,13.23
2019-06-10T08:21:24.787Z,12.93
2019-06-10T08:23:54.473Z,13.10
2019-06-10T08:26:23.465Z,12.37
2019-06-10T08:28:53.006Z,12.00
2019-06-10T08:31:22.794Z,11.80
2019-06-10T08:33:57.369Z,12.67
2019-06-10T08:36:26.194Z,12.27
2019-06-10T08:38:55.058Z,11.77
2019-06-10T08:41:24.056Z,11.60
2019-06-10T08:43:53.171Z,11.70
2019-06-10T08:46:23.898Z,11.63
2019-06-10T08:48:56.400Z,12.60
2019-06-10T08:51:25.696Z,12.00
2019-06-10T08:53:54.716Z,12.10
2019-06-10T08:56:24.103Z,10.93
2019-06-10T08:58:56.025Z,11.53
2019-06-10T09:01:28.249Z,10.97
2019-06-10T09:03:59.324Z,11.23
2019-06-10T09:06:28.166Z,11.03
2019-06-10T09:08:57.186Z,11.67
2019-06-10T09:11:26.548Z,10.90
2019-06-10T09:13:55.523Z,10.93
2019-06-10T09:16:24.540Z,10.30
2019-06-10T09:18:55.335Z,9.90
2019-06-10T09:21:24.072Z,10.50
2019-06-10T09:23:59.661Z,9.90
2019-06-10T09:26:26.919Z,10.90
2019-06-10T09:28:56.726Z,10.03
2019-06-10T09:31:25.854Z,10.47
2019-06-10T09:33:57.053Z,9.73
2019-06-10T09:36:27.832Z,10.20
2019-06-10T09:38:57.316Z,10.70
2019-06-10T09:41:36.534Z,10.00
2019-06-10T09:43:57.324Z,10.23
2019-06-10T09:46:32.525Z,9.13
2019-06-10T09:49:02.997Z,10.17
2019-06-10T09:51:33.030Z,9.77
2019-06-10T09:54:06.390Z,9.60
2019-06-10T09:56:33.155Z,9.23
2019-06-10T09:59:03.321Z,8.93
2019-06-10T10:01:32.843Z,8.80
2019-06-10T10:04:01.797Z,8.53
2019-06-10T10:06:32.704Z,9.03
2019-06-10T10:09:06.699Z,9.07
2019-06-10T10:11:35.617Z,9.50
2019-06-10T10:14:09.790Z,9.07
2019-06-10T10:16:36.579Z,8.30
2019-06-10T10:19:05.704Z,7.93
2019-06-10T10:21:34.927Z,8.63
2019-06-10T10:24:08.062Z,7.90
2019-06-10T10:26:35.845Z,8.20
2019-06-10T10:29:05.170Z,8.27
2019-06-10T10:31:35.913Z,8.53
2019-06-10T10:34:07.446Z,8.30
2019-06-10T10:36:36.350Z,9.10
2019-06-10T10:39:07.373Z,8.67
2019-06-10T10:41:36.510Z,8.33
2019-06-10T10:44:05.577Z,8.30
2019-06-10T10:46:34.500Z,8.33
2019-06-10T10:49:03.477Z,7.87
2019-06-10T10:51:32.663Z,7.93
2019-06-10T10:54:20.939Z,8.33
2019-06-10T10:56:33.930Z,8.57
2019-06-10T10:59:02.786Z,8.13
2019-06-10T11:01:33.299Z,8.20
2019-06-10T11:04:05.388Z,8.40
2019-06-10T11:06:39.651Z,8.10
2019-06-10T11:09:09.013Z,8.33
2019-06-10T11:11:44.016Z,7.97
2019-06-10T11:14:15.075Z,8.07
2019-06-10T11:16:43.292Z,8.10
2019-06-10T11:19:12.986Z,8.10
2019-06-10T11:21:43.199Z,8.53
2019-06-10T11:24:15.847Z,8.13
2019-06-10T11:26:43.269Z,8.65
2019-06-10T11:29:12.381Z,7.63
2019-06-10T11:31:42.609Z,8.78
2019-06-10T11:34:11.728Z,8.20
2019-06-10T11:36:42.398Z,9.10
2019-06-10T11:39:13.334Z,9.13
2019-06-10T11:41:50.170Z,8.27
2019-06-10T11:44:22.475Z,8.70
2019-06-10T11:46:54.521Z,8.57
2019-06-10T11:49:23.771Z,8.05
2019-06-10T11:51:55.969Z,8.03
2019-06-10T11:54:24.256Z,8.20
2019-06-10T11:56:56.458Z,8.48
2019-06-10T11:59:29.645Z,8.13
2019-06-10T12:02:06.944Z,8.23
2019-06-10T12:04:35.923Z,7.97
2019-06-10T12:07:08.784Z,7.92
2019-06-10T12:09:37.842Z,8.55
2019-06-10T12:12:07.099Z,8.63
2019-06-10T12:14:36.051Z,8.35
2019-06-10T12:17:21.433Z,8.83
2019-06-10T12:19:38.901Z,9.20
2019-06-10T12:22:08.019Z,9.00
2019-06-10T12:24:39.000Z,7.75
2019-06-10T12:27:07.959Z,8.08
2019-06-10T12:29:36.982Z,8.58
2019-06-10T12:32:09.242Z,9.27
2019-06-10T12:34:38.972Z,8.98
2019-06-10T12:37:11.337Z,8.30
2019-06-10T12:39:38.616Z,9.10
2019-06-10T12:42:13.975Z,9.15
2019-06-10T12:44:42.898Z,9.05
2019-06-10T12:47:12.106Z,9.28
2019-06-10T12:49:42.718Z,7.97
2019-06-10T12:52:12.590Z,8.93
2019-06-10T12:54:42.285Z,8.80
2019-06-10T12:57:12.381Z,9.03
2019-06-10T12:59:45.096Z,8.27
2019-06-10T13:02:22.659Z,8.53
2019-06-10T13:04:44.931Z,8.47
2019-06-10T13:07:13.922Z,8.17
2019-06-10T13:09:44.324Z,8.13
2019-06-10T13:12:13.397Z,8.20
2019-06-10T13:14:43.593Z,9.43
2019-06-10T13:17:13.062Z,8.50
2019-06-10T13:19:43.264Z,8.90
2019-06-10T13:22:12.607Z,8.57
2019-06-10T13:24:42.362Z,8.68
2019-06-10T13:27:11.678Z,8.78
2019-06-10T13:29:42.835Z,8.77
2019-06-10T13:32:11.354Z,8.97
2019-06-10T13:34:42.410Z,8.53
2019-06-10T13:37:14.917Z,8.68
2019-06-10T13:39:43.045Z,9.07
2019-06-10T13:42:13.581Z,8.80
2019-06-10T13:44:42.832Z,8.93
2019-06-10T13:47:14.953Z,9.00
2019-06-10T13:49:44.063Z,8.58
2019-06-10T13:52:16.648Z,8.27
2019-06-10T13:54:45.434Z,8.73
2019-06-10T13:57:14.473Z,8.60
2019-06-10T13:59:46.428Z,8.50
2019-06-10T14:02:14.123Z,8.85
2019-06-10T14:04:48.964Z,8.48
2019-06-10T14:07:17.951Z,8.48
2019-06-10T14:09:46.844Z,8.60
2019-06-10T14:12:17.307Z,8.45
2019-06-10T14:14:46.620Z,8.95
2019-06-10T14:17:19.083Z,9.05
2019-06-10T14:19:46.433Z,8.83
2019-06-10T14:22:16.063Z,8.90
2019-06-10T14:24:49.003Z,8.70
2019-06-10T14:27:21.337Z,9.00
2019-06-10T14:29:48.581Z,9.40
2019-06-10T14:32:17.522Z,8.70
2019-06-10T14:34:48.820Z,8.88
2019-06-10T14:37:32.259Z,9.13
2019-06-10T14:39:48.543Z,8.35
2019-06-10T14:42:17.469Z,9.30
2019-06-10T14:44:46.373Z,9.33
2019-06-10T14:47:16.736Z,9.60
2019-06-10T14:49:46.039Z,8.23
2019-06-10T14:52:16.826Z,8.50
2019-06-10T14:54:52.932Z,8.60
2019-06-10T14:57:24.849Z,9.05
2019-06-10T14:59:53.807Z,8.67
2019-06-10T15:02:22.739Z,8.70
2019-06-10T15:04:53.210Z,8.13
2019-06-10T15:07:23.688Z,8.70
2019-06-10T15:09:52.845Z,8.40
2019-06-10T15:12:22.815Z,7.85
2019-06-10T15:14:52.165Z,8.60
2019-06-10T15:17:21.229Z,8.67
2019-06-10T15:19:50.142Z,8.40
2019-06-10T15:22:20.024Z,8.43
2019-06-10T15:24:49.348Z,8.20
2019-06-10T15:27:25.596Z,7.90
2019-06-10T15:29:49.612Z,7.78
2019-06-10T15:32:33.906Z,7.83
2019-06-10T15:34:52.497Z,8.03
2019-06-10T15:37:28.951Z,7.80
2019-06-10T15:40:00.243Z,7.47
2019-06-10T15:42:29.685Z,7.72
2019-06-10T15:45:02.512Z,7.67
2019-06-10T15:47:31.727Z,7.53
2019-06-10T15:50:03.032Z,7.60
2019-06-10T15:52:32.820Z,7.53
2019-06-10T15:55:04.143Z,8.03
2019-06-10T15:57:40.770Z,7.67
2019-06-10T16:00:11.140Z,7.72
2019-06-10T16:02:35.777Z,7.30
2019-06-10T16:05:05.205Z,7.35
2019-06-10T16:07:34.130Z,7.60
2019-06-10T16:10:06.252Z,8.25
2019-06-10T16:12:35.156Z,7.03
2019-06-10T16:15:04.561Z,7.20
2019-06-10T16:17:33.724Z,7.80
2019-06-10T16:20:03.807Z,8.43
2019-06-10T16:22:33.088Z,7.80
2019-06-10T16:25:03.445Z,7.13
2019-06-10T16:27:44.517Z,8.05
2019-06-10T16:30:03.178Z,7.25
2019-06-10T16:32:32.981Z,7.33
2019-06-10T16:35:04.018Z,7.55
2019-06-10T16:37:32.852Z,7.72
2019-06-10T16:40:03.343Z,7.67
2019-06-10T16:42:34.779Z,8.83
2019-06-10T16:45:03.901Z,9.18
2019-06-10T16:47:33.041Z,8.43
2019-06-10T16:50:03.282Z,7.63
2019-06-10T16:52:34.250Z,8.40
2019-06-10T16:55:03.226Z,8.63
2019-06-10T16:57:33.408Z,8.95
2019-06-10T17:00:10.708Z,9.03
2019-06-10T17:02:33.219Z,8.50
2019-06-10T17:05:03.191Z,8.40
2019-06-10T17:07:32.986Z,8.73
2019-06-10T17:10:02.457Z,8.73
2019-06-10T17:12:33.083Z,8.80
2019-06-10T17:15:03.613Z,8.43
2019-06-10T17:17:34.533Z,8.27
2019-06-10T17:20:04.044Z,8.33
2019-06-10T17:22:33.572Z,8.07
2019-06-10T17:25:02.709Z,8.33
2019-06-10T17:27:32.739Z,8.43
2019-06-10T17:30:02.825Z,8.70
2019-06-10T17:32:32.928Z,8.90
2019-06-10T17:35:02.441Z,8.20
2019-06-10T17:37:33.686Z,8.23
2019-06-10T17:40:02.725Z,8.27
2019-06-10T17:42:37.271Z,8.33
2019-06-10T17:45:02.627Z,8.58
2019-06-10T17:47:32.401Z,8.73
2019-06-10T17:50:02.426Z,9.40
2019-06-10T17:52:34.163Z,9.47
2019-06-10T17:55:03.352Z,8.93
2019-06-10T17:57:36.062Z,9.33
2019-06-10T18:00:11.157Z,9.17
2019-06-10T18:02:36.179Z,9.70
2019-06-10T18:05:05.026Z,9.27
2019-06-10T18:07:35.666Z,9.83
2019-06-10T18:10:06.073Z,9.77
2019-06-10T18:12:35.834Z,9.80
2019-06-10T18:15:07.709Z,9.43
2019-06-10T18:17:36.829Z,9.83
2019-06-10T18:20:09.198Z,9.27
2019-06-10T18:22:40.052Z,10.03
2019-06-10T18:25:09.460Z,10.07
2019-06-10T18:27:38.874Z,10.10
2019-06-10T18:30:11.450Z,10.80
2019-06-10T18:32:39.994Z,10.30
2019-06-10T18:35:09.150Z,10.60
2019-06-10T18:37:39.148Z,9.87
2019-06-10T18:40:10.190Z,10.47
2019-06-10T18:42:42.246Z,10.03
2019-06-10T18:45:12.980Z,10.03
2019-06-10T18:47:42.354Z,10.37
2019-06-10T18:50:12.701Z,10.27
2019-06-10T18:52:43.326Z,9.70
2019-06-10T18:55:12.877Z,10.30
2019-06-10T18:57:42.593Z,10.87
2019-06-10T19:00:14.447Z,12.10
2019-06-10T19:02:42.545Z,10.70
2019-06-10T19:05:13.092Z,11.40
2019-06-10T19:07:42.970Z,10.73
2019-06-10T19:10:12.516Z,11.37
2019-06-10T19:12:42.531Z,11.77
2019-06-10T19:15:12.934Z,11.57
2019-06-10T19:17:44.333Z,11.70
2019-06-10T19:20:13.042Z,11.77
2019-06-10T19:22:43.213Z,12.40
2019-06-10T19:25:14.403Z,12.40
2019-06-10T19:27:44.216Z,12.00
2019-06-10T19:30:14.775Z,13.13
2019-06-10T19:32:44.476Z,13.73
2019-06-10T19:35:13.893Z,12.57
2019-06-10T19:37:42.863Z,12.57
2019-06-10T19:40:12.584Z,13.13
2019-06-10T19:42:44.468Z,12.87
2019-06-10T19:45:12.773Z,11.87
2019-06-10T19:47:45.554Z,12.03
2019-06-10T19:50:13.628Z,12.90
2019-06-10T19:52:45.342Z,12.33
2019-06-10T19:55:14.406Z,12.47
2019-06-10T19:57:44.819Z,12.23
2019-06-10T20:00:22.431Z,13.00
2019-06-10T20:02:52.472Z,13.50
2019-06-10T20:05:21.722Z,13.00
2019-06-10T20:07:53.909Z,12.57
2019-06-10T20:10:23.195Z,13.07
2019-06-10T20:12:53.639Z,12.23
2019-06-10T20:15:23.479Z,12.67
2019-06-10T20:17:52.759Z,13.37
2019-06-10T20:20:25.523Z,13.30
2019-06-10T20:22:57.468Z,13.43
2019-06-10T20:25:25.431Z,13.13
2019-06-10T20:27:55.987Z,13.50
2019-06-10T20:30:28.656Z,12.93
2019-06-10T20:32:56.457Z,12.57
2019-06-10T20:35:25.670Z,12.97
2019-06-10T20:37:54.533Z,12.97
2019-06-10T20:40:26.581Z,12.70
2019-06-10T20:42:55.676Z,13.07
2019-06-10T20:45:24.612Z,12.77
2019-06-10T20:47:53.607Z,12.83
2019-06-10T20:50:22.691Z,13.53
2019-06-10T20:52:52.412Z,12.40
2019-06-10T20:55:24.823Z,13.13
2019-06-10T20:58:03.072Z,12.63
2019-06-10T21:00:33.705Z,13.13
2019-06-10T21:03:03.396Z,12.87
2019-06-10T21:05:36.810Z,12.97
2019-06-10T21:08:09.087Z,13.00
2019-06-10T21:10:39.645Z,13.00
2019-06-10T21:13:12.355Z,13.90
2019-06-10T21:15:45.695Z,13.80
2019-06-10T21:18:14.133Z,15.03
2019-06-10T21:20:49.939Z,14.73
2019-06-10T21:23:17.276Z,14.67
2019-06-10T21:25:49.445Z,13.30
2019-06-10T21:28:17.216Z,13.90
2019-06-10T21:30:49.667Z,14.47
2019-06-10T21:33:16.917Z,14.67
2019-06-10T21:35:47.476Z,14.40
2019-06-10T21:38:16.507Z,14.00
2019-06-10T21:40:48.316Z,14.63
2019-06-10T21:43:17.437Z,14.07
2019-06-10T21:45:55.424Z,14.20
2019-06-10T21:48:19.981Z,13.50
2019-06-10T21:50:50.880Z,14.30
2019-06-10T21:53:22.167Z,14.17
2019-06-10T21:55:51.387Z,14.50
2019-06-10T21:58:22.528Z,15.03
2019-06-10T22:01:07.988Z,14.10
2019-06-10T22:03:23.398Z,14.07
2019-06-10T22:05:55.963Z,14.50
2019-06-10T22:08:24.985Z,14.27
2019-06-10T22:10:56.213Z,14.50
2019-06-10T22:13:24.912Z,15.23
2019-06-10T22:15:56.703Z,15.67
2019-06-10T22:18:27.302Z,14.77
2019-06-10T22:20:57.711Z,15.17
2019-06-10T22:23:26.875Z,14.50
2019-06-10T22:25:59.377Z,14.40
2019-06-10T22:28:28.380Z,13.67
2019-06-10T22:31:15.036Z,14.37
2019-06-10T22:33:33.515Z,13.70
2019-06-10T22:36:02.552Z,13.60
2019-06-10T22:38:32.881Z,14.70
2019-06-10T22:41:03.277Z,15.07
2019-06-10T22:43:32.606Z,14.17
2019-06-10T22:46:03.759Z,13.83
2019-06-10T22:48:33.311Z,15.10
2019-06-10T22:51:02.505Z,14.23
2019-06-10T22:53:33.301Z,14.77
2019-06-10T22:56:02.934Z,15.23
2019-06-10T22:58:32.320Z,14.77
2019-06-10T23:01:04.004Z,15.13
2019-06-10T23:03:31.804Z,16.77
2019-06-10T23:06:02.640Z,15.87
2019-06-10T23:08:33.406Z,15.33
2019-06-10T23:11:02.918Z,15.20
2019-06-10T23:13:35.304Z,16.00
2019-06-10T23:16:04.846Z,15.80
2019-06-10T23:18:33.739Z,16.03
2019-06-10T23:21:04.459Z,16.70
2019-06-10T23:23:36.725Z,15.20
2019-06-10T23:26:05.660Z,14.93
2019-06-10T23:28:34.571Z,15.83
2019-06-10T23:31:05.361Z,15.67
2019-06-10T23:33:34.140Z,16.57
2019-06-10T23:36:06.698Z,16.27
2019-06-10T23:38:35.609Z,15.00
2019-06-10T23:41:04.598Z,16.73
2019-06-10T23:43:33.586Z,15.60
2019-06-10T23:46:04.345Z,16.07
2019-06-10T23:48:33.233Z,16.63
2019-06-10T23:51:04.780Z,16.63
2019-06-10T23:53:33.073Z,15.97
2019-06-10T23:56:05.550Z,16.23
2019-06-10T23:58:35.675Z,17.87
